DLH139 EHRD-EDLV
Flight info
| Callsign | DLH139 |
|---|---|
| Flight time | N/A |
| Altitude | 17000 |
| Route | ARNEM T196 TEBRO DCT SOBTU SOBTU1W |
| Aircraft | A319/M-SDE3FGHIRWY/LB1 |
Departure
| Time | 2026-05-07 19:35 |
|---|---|
| Airport | Rotterdam The Hague Airport (EHRD) |
Arrival
| Time | N/A |
|---|---|
| Airport | Weeze (Niederrhein) Airport (EDLV) |
| Time | Latitude | Longitude | Altitude | Speed | Heading |
|---|---|---|---|---|---|
| 2026-05-07 19:30 | 51.95233 | 4.42885 | 3 ft | 0 kts | 58° |
| 2026-05-07 19:34 | 51.95237 | 4.42894 | 3 ft | 4 kts | 58° |
| 2026-05-07 19:35 | 51.95376 | 4.43241 | 2 ft | 85 kts | 57° |
| 2026-05-07 19:35 | 51.95841 | 4.44395 | 194 ft | 143 kts | 57° |
| 2026-05-07 19:35 | 51.96380 | 4.45755 | 1057 ft | 144 kts | 58° |
| 2026-05-07 19:35 | 51.96927 | 4.47168 | 1822 ft | 160 kts | 58° |
| 2026-05-07 19:36 | 51.97561 | 4.48807 | 2448 ft | 183 kts | 59° |
| 2026-05-07 19:36 | 51.98273 | 4.50682 | 2941 ft | 209 kts | 62° |
| 2026-05-07 19:36 | 51.98894 | 4.53026 | 2989 ft | 244 kts | 76° |
| 2026-05-07 19:36 | 51.98848 | 4.55795 | 3006 ft | 252 kts | 107° |
| 2026-05-07 19:37 | 51.97927 | 4.58190 | 3003 ft | 254 kts | 137° |
| 2026-05-07 19:37 | 51.96376 | 4.59509 | 3008 ft | 256 kts | 167° |
| 2026-05-07 19:37 | 51.94591 | 4.59623 | 3008 ft | 258 kts | 181° |
| 2026-05-07 19:37 | 51.92796 | 4.59428 | 3008 ft | 259 kts | 187° |
| 2026-05-07 19:38 | 51.91141 | 4.58320 | 3005 ft | 262 kts | 217° |
| 2026-05-07 19:38 | 51.89994 | 4.56040 | 3016 ft | 264 kts | 239° |
| 2026-05-07 19:38 | 51.89147 | 4.53447 | 3008 ft | 264 kts | 242° |
| 2026-05-07 19:38 | 51.88316 | 4.50798 | 3009 ft | 264 kts | 243° |
| 2026-05-07 19:39 | 51.87489 | 4.48143 | 3011 ft | 264 kts | 243° |
| 2026-05-07 19:39 | 51.86667 | 4.45488 | 3009 ft | 264 kts | 243° |
| 2026-05-07 19:39 | 51.85846 | 4.42829 | 3007 ft | 264 kts | 243° |
| 2026-05-07 19:39 | 51.85029 | 4.40171 | 3007 ft | 264 kts | 243° |
| 2026-05-07 19:40 | 51.84230 | 4.37496 | 3009 ft | 264 kts | 247° |
| 2026-05-07 19:40 | 51.83954 | 4.34597 | 2713 ft | 262 kts | 275° |
| 2026-05-07 19:40 | 51.84512 | 4.31827 | 2190 ft | 260 kts | 302° |
| 2026-05-07 19:40 | 51.85735 | 4.29740 | 2004 ft | 257 kts | 328° |
| 2026-05-07 19:41 | 51.87368 | 4.28682 | 2007 ft | 253 kts | 355° |
| 2026-05-07 19:41 | 51.88996 | 4.29011 | 1951 ft | 231 kts | 24° |
| 2026-05-07 19:41 | 51.90376 | 4.30177 | 1829 ft | 218 kts | 32° |
| 2026-05-07 19:41 | 51.91645 | 4.31398 | 1718 ft | 205 kts | 38° |
| 2026-05-07 19:42 | 51.92351 | 4.33197 | 1597 ft | 191 kts | 74° |
| 2026-05-07 19:42 | 51.92609 | 4.35263 | 1330 ft | 182 kts | 80° |
| 2026-05-07 19:42 | 51.92885 | 4.37163 | 1163 ft | 164 kts | 71° |
| 2026-05-07 19:42 | 51.93455 | 4.38723 | 944 ft | 156 kts | 54° |
| 2026-05-07 19:43 | 51.94076 | 4.40065 | 644 ft | 146 kts | 55° |
| 2026-05-07 19:43 | 51.94648 | 4.41419 | 281 ft | 145 kts | 57° |
| 2026-05-07 19:43 | 51.95180 | 4.42751 | 48 ft | 135 kts | 58° |
| 2026-05-07 19:43 | 51.95633 | 4.43895 | 2 ft | 93 kts | 57° |
| 2026-05-07 19:44 | 51.95820 | 4.44358 | 1 ft | 8 kts | 57° |
| 2026-05-07 19:44 | 51.95862 | 4.44460 | -1 ft | 15 kts | 56° |
| 2026-05-07 19:44 | 51.95907 | 4.44625 | -1 ft | 15 kts | 83° |
| 2026-05-07 19:44 | 51.95851 | 4.44736 | 1 ft | 12 kts | 146° |
| 2026-05-07 19:45 | 51.95782 | 4.44747 | 1 ft | 10 kts | 223° |
| 2026-05-07 19:45 | 51.95771 | 4.44718 | 1 ft | 0 kts | 236° |